KLM1675 EHAM-LIEE
Flight info
| Callsign | KLM1675 |
|---|---|
| Flight time | 2h 7m |
| Altitude | 33000 |
| Route | EDUPO Z739 MISGO DCT ASBON DCT TUSUK DCT ULNOK L607 ABUKA/N0451F340 DCT KRH DCT NATOR/N0452F330 DCT TRA DCT RIPUS DCT GERSA DCT SOSON DCT ODINA DCT UNITA DCT OLETI DCT TORTU DCT OKROK DCT AJO DCT CORSI DCT UPDUT DCT MINKA DCT BOLOT/N0382F190 M858 RAMEN M732 KOVAS |
| Aircraft | A321/M-SDE3FGHIRWY/LB1 |
Departure
| Time | 2026-05-04 04:34 |
|---|---|
| Airport | Amsterdam Airport Schiphol (EHAM) |
Arrival
| Time | 2026-05-04 06:42 |
|---|---|
| Airport | Cagliari Elmas Airport (LIEE) |
| Time | Latitude | Longitude | Altitude | Speed | Heading |
|---|---|---|---|---|---|
| 2026-05-04 04:02 | 52.30335 | 4.76211 | -1 ft | 0 kts | 58° |
| 2026-05-04 04:25 | 52.30329 | 4.76193 | -1 ft | 4 kts | 65° |
| 2026-05-04 04:25 | 52.30322 | 4.76154 | -1 ft | 4 kts | 101° |
| 2026-05-04 04:25 | 52.30332 | 4.76124 | -1 ft | 3 kts | 149° |
| 2026-05-04 04:26 | 52.30319 | 4.76138 | -1 ft | 4 kts | 149° |
| 2026-05-04 04:26 | 52.30296 | 4.76161 | -1 ft | 4 kts | 149° |
| 2026-05-04 04:26 | 52.30291 | 4.76166 | -1 ft | 0 kts | 149° |
| 2026-05-04 04:29 | 52.30286 | 4.76170 | -1 ft | 4 kts | 149° |
| 2026-05-04 04:29 | 52.30247 | 4.76213 | -1 ft | 8 kts | 146° |
| 2026-05-04 04:29 | 52.30191 | 4.76261 | -1 ft | 10 kts | 163° |
| 2026-05-04 04:30 | 52.30138 | 4.76341 | -1 ft | 11 kts | 96° |
| 2026-05-04 04:30 | 52.30168 | 4.76446 | -1 ft | 10 kts | 58° |
| 2026-05-04 04:30 | 52.30212 | 4.76561 | -1 ft | 14 kts | 58° |
| 2026-05-04 04:30 | 52.30267 | 4.76705 | -1 ft | 15 kts | 58° |
| 2026-05-04 04:31 | 52.30319 | 4.76840 | -1 ft | 13 kts | 58° |
| 2026-05-04 04:31 | 52.30366 | 4.76963 | -1 ft | 12 kts | 58° |
| 2026-05-04 04:31 | 52.30402 | 4.77056 | -1 ft | 11 kts | 58° |
| 2026-05-04 04:31 | 52.30441 | 4.77156 | -1 ft | 10 kts | 58° |
| 2026-05-04 04:32 | 52.30485 | 4.77274 | -1 ft | 13 kts | 58° |
| 2026-05-04 04:32 | 52.30531 | 4.77392 | -1 ft | 12 kts | 57° |
| 2026-05-04 04:32 | 52.30565 | 4.77501 | -1 ft | 10 kts | 87° |
| 2026-05-04 04:32 | 52.30528 | 4.77579 | -1 ft | 9 kts | 147° |
| 2026-05-04 04:33 | 52.30479 | 4.77620 | -1 ft | 7 kts | 154° |
| 2026-05-04 04:33 | 52.30439 | 4.77651 | -1 ft | 5 kts | 161° |
| 2026-05-04 04:33 | 52.30398 | 4.77598 | -2 ft | 10 kts | 237° |
| 2026-05-04 04:33 | 52.30353 | 4.77479 | -2 ft | 19 kts | 238° |
| 2026-05-04 04:34 | 52.30174 | 4.77015 | -3 ft | 82 kts | 238° |
| 2026-05-04 04:34 | 52.29763 | 4.75943 | -2 ft | 137 kts | 238° |
| 2026-05-04 04:34 | 52.29177 | 4.74420 | 16 ft | 177 kts | 237° |
| 2026-05-04 04:34 | 52.28522 | 4.72717 | 674 ft | 167 kts | 237° |
| 2026-05-04 04:35 | 52.27940 | 4.71190 | 1514 ft | 156 kts | 237° |
| 2026-05-04 04:35 | 52.27288 | 4.69723 | 1926 ft | 168 kts | 223° |
| 2026-05-04 04:35 | 52.26218 | 4.68742 | 2086 ft | 188 kts | 195° |
| 2026-05-04 04:35 | 52.24851 | 4.68696 | 2204 ft | 209 kts | 169° |
| 2026-05-04 04:36 | 52.23492 | 4.69779 | 2449 ft | 228 kts | 140° |
| 2026-05-04 04:36 | 52.22535 | 4.71875 | 3025 ft | 236 kts | 122° |
| 2026-05-04 04:36 | 52.21664 | 4.74301 | 3289 ft | 258 kts | 122° |
| 2026-05-04 04:36 | 52.20741 | 4.76876 | 3862 ft | 266 kts | 123° |
| 2026-05-04 04:37 | 52.17992 | 4.84980 | 5937 ft | 280 kts | 111° |
| 2026-05-04 04:37 | 52.17658 | 4.88137 | 6597 ft | 288 kts | 92° |
| 2026-05-04 04:38 | 52.17864 | 4.90889 | 7139 ft | 293 kts | 76° |
| 2026-05-04 04:38 | 52.18479 | 4.94157 | 7795 ft | 297 kts | 74° |
| 2026-05-04 04:38 | 52.19097 | 4.97382 | 8454 ft | 300 kts | 75° |
| 2026-05-04 04:38 | 52.19717 | 5.00647 | 9104 ft | 303 kts | 75° |
| 2026-05-04 04:39 | 52.20341 | 5.03947 | 9745 ft | 306 kts | 75° |
| 2026-05-04 04:39 | 52.20972 | 5.07294 | 10225 ft | 316 kts | 75° |
| 2026-05-04 04:39 | 52.21635 | 5.10833 | 10342 ft | 337 kts | 75° |
| 2026-05-04 04:39 | 52.22337 | 5.14592 | 10471 ft | 356 kts | 75° |
| 2026-05-04 04:40 | 52.22981 | 5.18590 | 10592 ft | 373 kts | 83° |
| 2026-05-04 04:40 | 52.23147 | 5.22861 | 10936 ft | 379 kts | 95° |
| 2026-05-04 04:40 | 52.22767 | 5.27108 | 11469 ft | 379 kts | 108° |
| 2026-05-04 04:40 | 52.21861 | 5.31130 | 12032 ft | 378 kts | 120° |
| 2026-05-04 04:41 | 52.20487 | 5.34762 | 12600 ft | 377 kts | 129° |
| 2026-05-04 04:41 | 52.18983 | 5.38209 | 13180 ft | 380 kts | 129° |
| 2026-05-04 04:41 | 52.17443 | 5.41739 | 13749 ft | 383 kts | 129° |
| 2026-05-04 04:41 | 52.15895 | 5.45286 | 14254 ft | 386 kts | 129° |
| 2026-05-04 04:42 | 52.14332 | 5.48861 | 14759 ft | 388 kts | 129° |
| 2026-05-04 04:42 | 52.12761 | 5.52453 | 15251 ft | 391 kts | 129° |
| 2026-05-04 04:42 | 52.11174 | 5.56079 | 15739 ft | 394 kts | 129° |
| 2026-05-04 04:42 | 52.09579 | 5.59717 | 16211 ft | 397 kts | 129° |
| 2026-05-04 04:43 | 52.07972 | 5.63379 | 16683 ft | 399 kts | 129° |
| 2026-05-04 04:43 | 52.06348 | 5.67068 | 17144 ft | 402 kts | 130° |
| 2026-05-04 04:43 | 52.04552 | 5.70545 | 17595 ft | 403 kts | 134° |
| 2026-05-04 04:43 | 52.02732 | 5.73939 | 18041 ft | 406 kts | 134° |
| 2026-05-04 04:44 | 52.00872 | 5.77401 | 18456 ft | 408 kts | 134° |
| 2026-05-04 04:44 | 51.98999 | 5.80881 | 18840 ft | 411 kts | 134° |
| 2026-05-04 04:44 | 51.97112 | 5.84384 | 19233 ft | 413 kts | 134° |
| 2026-05-04 04:44 | 51.95217 | 5.87911 | 19630 ft | 416 kts | 134° |
| 2026-05-04 04:45 | 51.93317 | 5.91456 | 20000 ft | 418 kts | 134° |
| 2026-05-04 04:45 | 51.91574 | 5.94715 | 20340 ft | 420 kts | 134° |
| 2026-05-04 04:45 | 51.89656 | 5.98298 | 20715 ft | 422 kts | 134° |
| 2026-05-04 04:47 | 51.77841 | 6.20115 | 22904 ft | 437 kts | 135° |
| 2026-05-04 04:47 | 51.75821 | 6.23803 | 23250 ft | 440 kts | 135° |
| 2026-05-04 04:47 | 51.73785 | 6.27514 | 23581 ft | 442 kts | 135° |
| 2026-05-04 04:47 | 51.71739 | 6.31235 | 23860 ft | 445 kts | 135° |
| 2026-05-04 04:48 | 51.69683 | 6.34974 | 24154 ft | 447 kts | 135° |
| 2026-05-04 04:49 | 51.61366 | 6.50043 | 25313 ft | 454 kts | 135° |
| 2026-05-04 04:49 | 51.59286 | 6.53803 | 25595 ft | 455 kts | 135° |
| 2026-05-04 04:49 | 51.57176 | 6.57616 | 25866 ft | 457 kts | 135° |
| 2026-05-04 04:49 | 51.55054 | 6.61447 | 26123 ft | 459 kts | 135° |
| 2026-05-04 04:50 | 51.52930 | 6.65277 | 26405 ft | 461 kts | 135° |
| 2026-05-04 04:50 | 51.50788 | 6.69129 | 26673 ft | 462 kts | 135° |
| 2026-05-04 04:50 | 51.48638 | 6.72981 | 26953 ft | 464 kts | 135° |
| 2026-05-04 04:50 | 51.46480 | 6.76839 | 27185 ft | 466 kts | 135° |
| 2026-05-04 04:51 | 51.44310 | 6.80708 | 27452 ft | 468 kts | 135° |
| 2026-05-04 04:51 | 51.42116 | 6.84598 | 27717 ft | 469 kts | 137° |
| 2026-05-04 04:51 | 51.39728 | 6.88098 | 28069 ft | 464 kts | 146° |
| 2026-05-04 04:51 | 51.37086 | 6.91006 | 28410 ft | 460 kts | 151° |
| 2026-05-04 04:52 | 51.34381 | 6.93726 | 28759 ft | 459 kts | 151° |
| 2026-05-04 04:52 | 51.31675 | 6.96443 | 29129 ft | 458 kts | 151° |
| 2026-05-04 04:52 | 51.28987 | 6.99144 | 29486 ft | 457 kts | 151° |
| 2026-05-04 04:52 | 51.26292 | 7.01849 | 29838 ft | 456 kts | 151° |
| 2026-05-04 04:53 | 51.23611 | 7.04539 | 30166 ft | 455 kts | 152° |
| 2026-05-04 04:53 | 51.20968 | 7.07192 | 30461 ft | 454 kts | 151° |
| 2026-05-04 04:53 | 51.18300 | 7.09873 | 30772 ft | 453 kts | 152° |
| 2026-05-04 04:53 | 51.15634 | 7.12537 | 31086 ft | 452 kts | 152° |
| 2026-05-04 04:54 | 51.12973 | 7.15194 | 31386 ft | 451 kts | 152° |
| 2026-05-04 04:54 | 51.10318 | 7.17840 | 31712 ft | 449 kts | 152° |
| 2026-05-04 04:54 | 51.07671 | 7.20469 | 32022 ft | 448 kts | 152° |
| 2026-05-04 04:54 | 51.05028 | 7.23087 | 32328 ft | 447 kts | 152° |
| 2026-05-04 04:55 | 51.02430 | 7.25660 | 32623 ft | 446 kts | 152° |
| 2026-05-04 04:55 | 50.99801 | 7.28263 | 32900 ft | 446 kts | 152° |
| 2026-05-04 04:55 | 50.94557 | 7.33438 | 32975 ft | 442 kts | 152° |
| 2026-05-04 04:56 | 50.89344 | 7.38569 | 32983 ft | 441 kts | 152° |
| 2026-05-04 04:56 | 50.84135 | 7.43696 | 32982 ft | 441 kts | 152° |
| 2026-05-04 04:57 | 50.78922 | 7.48818 | 32992 ft | 441 kts | 152° |
| 2026-05-04 04:57 | 50.73708 | 7.53906 | 32991 ft | 441 kts | 152° |
| 2026-05-04 04:58 | 50.68519 | 7.59072 | 32999 ft | 441 kts | 150° |
| 2026-05-04 04:58 | 50.63398 | 7.64428 | 32994 ft | 442 kts | 149° |
| 2026-05-04 04:59 | 50.58288 | 7.69800 | 32994 ft | 442 kts | 149° |
| 2026-05-04 04:59 | 50.53150 | 7.75120 | 32990 ft | 442 kts | 149° |
| 2026-05-04 05:00 | 50.48033 | 7.80355 | 32993 ft | 442 kts | 150° |
| 2026-05-04 05:01 | 50.40301 | 7.88256 | 32994 ft | 442 kts | 149° |
| 2026-05-04 05:01 | 50.35152 | 7.93513 | 33006 ft | 442 kts | 149° |
| 2026-05-04 05:02 | 50.29997 | 7.98761 | 33021 ft | 442 kts | 149° |
| 2026-05-04 05:02 | 50.24841 | 8.03997 | 33009 ft | 442 kts | 149° |
| 2026-05-04 05:03 | 50.19687 | 8.09225 | 33029 ft | 442 kts | 149° |
| 2026-05-04 05:04 | 50.09315 | 8.19501 | 33030 ft | 442 kts | 152° |
| 2026-05-04 05:04 | 50.04015 | 8.24347 | 33029 ft | 442 kts | 152° |
| 2026-05-04 05:06 | 49.83137 | 8.44438 | 33009 ft | 447 kts | 139° |
| 2026-05-04 05:07 | 49.78617 | 8.51049 | 33019 ft | 447 kts | 139° |
| 2026-05-04 05:07 | 49.73974 | 8.57421 | 33001 ft | 445 kts | 148° |
| 2026-05-04 05:09 | 49.50581 | 8.66793 | 33014 ft | 437 kts | 172° |
| 2026-05-04 05:09 | 49.47579 | 8.67471 | 33015 ft | 435 kts | 178° |
| 2026-05-04 05:10 | 49.41589 | 8.66908 | 33011 ft | 431 kts | 189° |
| 2026-05-04 05:10 | 49.35671 | 8.65701 | 33015 ft | 432 kts | 189° |
| 2026-05-04 05:11 | 49.29720 | 8.64512 | 33013 ft | 432 kts | 189° |
| 2026-05-04 05:11 | 49.23766 | 8.63317 | 33019 ft | 432 kts | 189° |
| 2026-05-04 05:12 | 49.17802 | 8.62128 | 33015 ft | 432 kts | 189° |
| 2026-05-04 05:12 | 49.12853 | 8.61136 | 33020 ft | 431 kts | 189° |
| 2026-05-04 05:13 | 49.06902 | 8.59938 | 33018 ft | 431 kts | 189° |
| 2026-05-04 05:13 | 49.00954 | 8.58752 | 33020 ft | 431 kts | 189° |
| 2026-05-04 05:14 | 48.95040 | 8.57286 | 33019 ft | 430 kts | 193° |
| 2026-05-04 05:14 | 48.89203 | 8.55305 | 33024 ft | 429 kts | 195° |
| 2026-05-04 05:15 | 48.83374 | 8.53274 | 33023 ft | 429 kts | 194° |
| 2026-05-04 05:15 | 48.77532 | 8.51344 | 33024 ft | 429 kts | 194° |
| 2026-05-04 05:16 | 48.71748 | 8.49507 | 33014 ft | 419 kts | 195° |
| 2026-05-04 05:16 | 48.66063 | 8.47706 | 33003 ft | 417 kts | 195° |
| 2026-05-04 05:17 | 48.60379 | 8.45877 | 33005 ft | 418 kts | 195° |
| 2026-05-04 05:17 | 48.54684 | 8.44056 | 33006 ft | 418 kts | 195° |
| 2026-05-04 05:18 | 48.49028 | 8.42268 | 33018 ft | 418 kts | 195° |
| 2026-05-04 05:18 | 48.43338 | 8.40455 | 33021 ft | 418 kts | 195° |
| 2026-05-04 05:19 | 48.37649 | 8.38636 | 33022 ft | 418 kts | 195° |
| 2026-05-04 05:19 | 48.31956 | 8.36837 | 33021 ft | 418 kts | 195° |
| 2026-05-04 05:20 | 48.26266 | 8.35045 | 33022 ft | 418 kts | 195° |
| 2026-05-04 05:20 | 48.20581 | 8.33251 | 33023 ft | 418 kts | 195° |
| 2026-05-04 05:21 | 48.14759 | 8.32692 | 33021 ft | 426 kts | 178° |
| 2026-05-04 05:21 | 48.08880 | 8.34107 | 33025 ft | 428 kts | 175° |
| 2026-05-04 05:22 | 48.02996 | 8.35533 | 33031 ft | 428 kts | 175° |
| 2026-05-04 05:22 | 47.97112 | 8.36941 | 33032 ft | 428 kts | 175° |
| 2026-05-04 05:23 | 47.91230 | 8.38356 | 33038 ft | 428 kts | 175° |
| 2026-05-04 05:23 | 47.86144 | 8.39582 | 33043 ft | 428 kts | 175° |
| 2026-05-04 05:24 | 47.80265 | 8.40996 | 33043 ft | 428 kts | 175° |
| 2026-05-04 05:24 | 47.74431 | 8.42394 | 33048 ft | 427 kts | 175° |
| 2026-05-04 05:25 | 47.68566 | 8.43781 | 33044 ft | 427 kts | 176° |
| 2026-05-04 05:25 | 47.62685 | 8.44807 | 33045 ft | 425 kts | 179° |
| 2026-05-04 05:26 | 47.56796 | 8.45551 | 33039 ft | 424 kts | 179° |
| 2026-05-04 05:26 | 47.50913 | 8.46331 | 33040 ft | 425 kts | 179° |
| 2026-05-04 05:28 | 47.27376 | 8.49797 | 33041 ft | 426 kts | 179° |
| 2026-05-04 05:29 | 47.21474 | 8.50650 | 33036 ft | 426 kts | 179° |
| 2026-05-04 05:29 | 47.15567 | 8.51512 | 33039 ft | 427 kts | 179° |
| 2026-05-04 05:31 | 46.91910 | 8.54944 | 33060 ft | 427 kts | 179° |
| 2026-05-04 05:32 | 46.85988 | 8.55789 | 33058 ft | 427 kts | 179° |
| 2026-05-04 05:33 | 46.77116 | 8.57072 | 33054 ft | 428 kts | 179° |
| 2026-05-04 05:33 | 46.71179 | 8.57922 | 33078 ft | 428 kts | 179° |
| 2026-05-04 05:34 | 46.65257 | 8.58765 | 33087 ft | 428 kts | 178° |
| 2026-05-04 05:34 | 46.59369 | 8.59594 | 33088 ft | 428 kts | 178° |
| 2026-05-04 05:35 | 46.53442 | 8.60429 | 33096 ft | 428 kts | 178° |
| 2026-05-04 05:35 | 46.47524 | 8.61273 | 33095 ft | 427 kts | 178° |
| 2026-05-04 05:36 | 46.41605 | 8.62115 | 33102 ft | 428 kts | 178° |
| 2026-05-04 05:36 | 46.35679 | 8.62955 | 33110 ft | 427 kts | 178° |
| 2026-05-04 05:37 | 46.29760 | 8.63787 | 33113 ft | 428 kts | 178° |
| 2026-05-04 05:37 | 46.23872 | 8.64611 | 33115 ft | 427 kts | 178° |
| 2026-05-04 05:38 | 46.14988 | 8.65850 | 33119 ft | 428 kts | 178° |
| 2026-05-04 05:38 | 46.09062 | 8.66684 | 33115 ft | 428 kts | 177° |
| 2026-05-04 05:39 | 46.00169 | 8.68209 | 33116 ft | 429 kts | 176° |
| 2026-05-04 05:40 | 45.91273 | 8.69810 | 33114 ft | 429 kts | 176° |
| 2026-05-04 05:40 | 45.85335 | 8.70829 | 33113 ft | 430 kts | 176° |
| 2026-05-04 05:41 | 45.79392 | 8.71831 | 33095 ft | 430 kts | 176° |
| 2026-05-04 05:41 | 45.73441 | 8.72845 | 33094 ft | 431 kts | 176° |
| 2026-05-04 05:42 | 45.67530 | 8.73858 | 33098 ft | 431 kts | 176° |
| 2026-05-04 05:42 | 45.61574 | 8.74881 | 33099 ft | 431 kts | 176° |
| 2026-05-04 05:43 | 45.55606 | 8.75896 | 33099 ft | 432 kts | 176° |
| 2026-05-04 05:45 | 45.31745 | 8.79922 | 33098 ft | 433 kts | 176° |
| 2026-05-04 05:47 | 45.07794 | 8.83946 | 33109 ft | 433 kts | 176° |
| 2026-05-04 05:47 | 45.01802 | 8.84941 | 33110 ft | 433 kts | 176° |
| 2026-05-04 05:48 | 44.95814 | 8.85936 | 33110 ft | 433 kts | 176° |
| 2026-05-04 05:48 | 44.89832 | 8.86931 | 33109 ft | 433 kts | 176° |
| 2026-05-04 05:49 | 44.83849 | 8.87924 | 33112 ft | 433 kts | 176° |
| 2026-05-04 05:49 | 44.77871 | 8.88911 | 33113 ft | 432 kts | 176° |
| 2026-05-04 05:51 | 44.54010 | 8.92847 | 33139 ft | 431 kts | 176° |
| 2026-05-04 05:52 | 44.48054 | 8.93811 | 33147 ft | 430 kts | 176° |
| 2026-05-04 05:52 | 44.42145 | 8.94769 | 33144 ft | 430 kts | 176° |
| 2026-05-04 05:54 | 44.18437 | 8.98631 | 33133 ft | 428 kts | 176° |
| 2026-05-04 05:55 | 44.12514 | 8.99595 | 33124 ft | 428 kts | 176° |
| 2026-05-04 05:55 | 44.06605 | 9.00549 | 33113 ft | 428 kts | 176° |
| 2026-05-04 05:56 | 44.00696 | 9.01497 | 33112 ft | 427 kts | 176° |
| 2026-05-04 05:56 | 43.94787 | 9.02367 | 33109 ft | 425 kts | 181° |
| 2026-05-04 05:57 | 43.88916 | 9.01833 | 33105 ft | 422 kts | 188° |
| 2026-05-04 05:57 | 43.83100 | 9.01104 | 33100 ft | 422 kts | 187° |
| 2026-05-04 05:58 | 43.77244 | 9.00398 | 33093 ft | 422 kts | 187° |
| 2026-05-04 05:58 | 43.71394 | 8.99703 | 33087 ft | 422 kts | 187° |
| 2026-05-04 05:59 | 43.65529 | 8.99010 | 33077 ft | 423 kts | 187° |
| 2026-05-04 05:59 | 43.59669 | 8.98310 | 33073 ft | 423 kts | 187° |
| 2026-05-04 06:00 | 43.53796 | 8.97604 | 33070 ft | 424 kts | 187° |
| 2026-05-04 06:00 | 43.47912 | 8.96906 | 33062 ft | 424 kts | 187° |
| 2026-05-04 06:01 | 43.42023 | 8.96217 | 33061 ft | 425 kts | 187° |
| 2026-05-04 06:03 | 43.19342 | 8.93559 | 33054 ft | 429 kts | 187° |
| 2026-05-04 06:05 | 42.92423 | 8.90469 | 33056 ft | 433 kts | 187° |
| 2026-05-04 06:06 | 42.86405 | 8.89780 | 33054 ft | 434 kts | 187° |
| 2026-05-04 06:06 | 42.80382 | 8.89085 | 33058 ft | 435 kts | 187° |
| 2026-05-04 06:07 | 42.74349 | 8.88399 | 33060 ft | 435 kts | 187° |
| 2026-05-04 06:07 | 42.68300 | 8.87718 | 33064 ft | 436 kts | 187° |
| 2026-05-04 06:08 | 42.62261 | 8.87027 | 33065 ft | 436 kts | 187° |
| 2026-05-04 06:08 | 42.56208 | 8.86337 | 33065 ft | 437 kts | 187° |
| 2026-05-04 06:09 | 42.50146 | 8.85650 | 33064 ft | 437 kts | 187° |
| 2026-05-04 06:11 | 42.25941 | 8.82916 | 33067 ft | 437 kts | 188° |
| 2026-05-04 06:13 | 42.01668 | 8.80195 | 33088 ft | 438 kts | 188° |
| 2026-05-04 06:14 | 41.83382 | 8.78154 | 31663 ft | 443 kts | 188° |
| 2026-05-04 06:14 | 41.80302 | 8.77815 | 31403 ft | 444 kts | 188° |
| 2026-05-04 06:15 | 41.77215 | 8.77534 | 31151 ft | 447 kts | 184° |
| 2026-05-04 06:15 | 41.74093 | 8.77713 | 30901 ft | 450 kts | 180° |
| 2026-05-04 06:15 | 41.70965 | 8.77997 | 30648 ft | 451 kts | 180° |
| 2026-05-04 06:15 | 41.67834 | 8.78274 | 30407 ft | 452 kts | 180° |
| 2026-05-04 06:16 | 41.64687 | 8.78547 | 30166 ft | 453 kts | 180° |
| 2026-05-04 06:16 | 41.61542 | 8.78817 | 29878 ft | 454 kts | 180° |
| 2026-05-04 06:16 | 41.58387 | 8.79086 | 29592 ft | 454 kts | 180° |
| 2026-05-04 06:16 | 41.55236 | 8.79353 | 29311 ft | 455 kts | 180° |
| 2026-05-04 06:17 | 41.52071 | 8.79621 | 29034 ft | 455 kts | 180° |
| 2026-05-04 06:17 | 41.48906 | 8.79891 | 28759 ft | 456 kts | 180° |
| 2026-05-04 06:17 | 41.45737 | 8.80163 | 28482 ft | 457 kts | 180° |
| 2026-05-04 06:17 | 41.42562 | 8.80435 | 28228 ft | 458 kts | 180° |
| 2026-05-04 06:18 | 41.39381 | 8.80707 | 27949 ft | 458 kts | 180° |
| 2026-05-04 06:18 | 41.36203 | 8.80981 | 27684 ft | 458 kts | 180° |
| 2026-05-04 06:18 | 41.33043 | 8.81525 | 27421 ft | 460 kts | 172° |
| 2026-05-04 06:20 | 41.11360 | 8.85025 | 25649 ft | 443 kts | 183° |
| 2026-05-04 06:20 | 41.08285 | 8.85088 | 25408 ft | 442 kts | 182° |
| 2026-05-04 06:21 | 40.96076 | 8.85316 | 24452 ft | 436 kts | 182° |
| 2026-05-04 06:21 | 40.93044 | 8.85362 | 24220 ft | 435 kts | 182° |
| 2026-05-04 06:22 | 40.90023 | 8.85406 | 23988 ft | 433 kts | 182° |
| 2026-05-04 06:22 | 40.87013 | 8.85454 | 23759 ft | 432 kts | 182° |
| 2026-05-04 06:25 | 40.48668 | 8.88313 | 20386 ft | 417 kts | 180° |
| 2026-05-04 06:25 | 40.45778 | 8.88549 | 20141 ft | 416 kts | 180° |
| 2026-05-04 06:26 | 40.42891 | 8.88784 | 19898 ft | 415 kts | 180° |
| 2026-05-04 06:26 | 40.40011 | 8.89019 | 19649 ft | 414 kts | 180° |
| 2026-05-04 06:26 | 40.37142 | 8.89256 | 19421 ft | 413 kts | 180° |
| 2026-05-04 06:26 | 40.34276 | 8.89495 | 19182 ft | 411 kts | 180° |
| 2026-05-04 06:27 | 40.22924 | 8.90442 | 18224 ft | 406 kts | 179° |
| 2026-05-04 06:28 | 40.20146 | 8.90668 | 17956 ft | 404 kts | 180° |
| 2026-05-04 06:28 | 40.17306 | 8.90899 | 17689 ft | 403 kts | 180° |
| 2026-05-04 06:28 | 40.14555 | 8.91126 | 17422 ft | 401 kts | 179° |
| 2026-05-04 06:28 | 40.11777 | 8.91354 | 17173 ft | 399 kts | 179° |
| 2026-05-04 06:29 | 40.09010 | 8.91584 | 16913 ft | 397 kts | 179° |
| 2026-05-04 06:29 | 40.06265 | 8.91817 | 16637 ft | 392 kts | 179° |
| 2026-05-04 06:29 | 40.03565 | 8.92044 | 16177 ft | 387 kts | 179° |
| 2026-05-04 06:29 | 40.00891 | 8.92262 | 15698 ft | 383 kts | 180° |
| 2026-05-04 06:30 | 39.98237 | 8.92476 | 15227 ft | 380 kts | 179° |
| 2026-05-04 06:30 | 39.95605 | 8.92689 | 14735 ft | 378 kts | 180° |
| 2026-05-04 06:30 | 39.92989 | 8.92903 | 14238 ft | 376 kts | 179° |
| 2026-05-04 06:30 | 39.90386 | 8.93118 | 13714 ft | 374 kts | 179° |
| 2026-05-04 06:31 | 39.87792 | 8.93330 | 13177 ft | 372 kts | 179° |
| 2026-05-04 06:31 | 39.85212 | 8.93536 | 12661 ft | 370 kts | 179° |
| 2026-05-04 06:31 | 39.82649 | 8.93778 | 12141 ft | 369 kts | 175° |
| 2026-05-04 06:31 | 39.80154 | 8.94551 | 11604 ft | 371 kts | 163° |
| 2026-05-04 06:32 | 39.77830 | 8.96014 | 11074 ft | 373 kts | 150° |
| 2026-05-04 06:33 | 39.64088 | 9.06806 | 10044 ft | 292 kts | 170° |
| 2026-05-04 06:34 | 39.62069 | 9.07144 | 9438 ft | 296 kts | 183° |
| 2026-05-04 06:34 | 39.60024 | 9.07165 | 9054 ft | 294 kts | 182° |
| 2026-05-04 06:34 | 39.57935 | 9.07199 | 8241 ft | 306 kts | 182° |
| 2026-05-04 06:34 | 39.55809 | 9.07245 | 7465 ft | 302 kts | 181° |
| 2026-05-04 06:35 | 39.53788 | 9.07059 | 7073 ft | 280 kts | 196° |
| 2026-05-04 06:36 | 39.43860 | 8.98533 | 4602 ft | 230 kts | 216° |
| 2026-05-04 06:37 | 39.42565 | 8.97319 | 4283 ft | 228 kts | 216° |
| 2026-05-04 06:37 | 39.41326 | 8.96156 | 3954 ft | 217 kts | 215° |
| 2026-05-04 06:37 | 39.40108 | 8.95008 | 3667 ft | 215 kts | 215° |
| 2026-05-04 06:37 | 39.38906 | 8.93879 | 3360 ft | 212 kts | 214° |
| 2026-05-04 06:38 | 39.37687 | 8.92836 | 3040 ft | 208 kts | 200° |
| 2026-05-04 06:38 | 39.36299 | 8.92755 | 2745 ft | 202 kts | 160° |
| 2026-05-04 06:40 | 39.30231 | 8.99643 | 1083 ft | 142 kts | 139° |
| 2026-05-04 06:40 | 39.29494 | 9.00471 | 925 ft | 143 kts | 139° |
| 2026-05-04 06:40 | 39.28747 | 9.01305 | 760 ft | 142 kts | 141° |
| 2026-05-04 06:40 | 39.27997 | 9.02140 | 588 ft | 142 kts | 140° |
| 2026-05-04 06:41 | 39.27269 | 9.02985 | 358 ft | 140 kts | 140° |
| 2026-05-04 06:41 | 39.26544 | 9.03816 | 176 ft | 139 kts | 140° |
| 2026-05-04 06:41 | 39.25827 | 9.04641 | 19 ft | 133 kts | 141° |
| 2026-05-04 06:41 | 39.25286 | 9.05265 | 14 ft | 63 kts | 137° |
| 2026-05-04 06:42 | 39.25076 | 9.05512 | 16 ft | 35 kts | 138° |
| 2026-05-04 06:42 | 39.24905 | 9.05710 | 16 ft | 32 kts | 138° |
| 2026-05-04 06:42 | 39.24774 | 9.05862 | 16 ft | 19 kts | 138° |
| 2026-05-04 06:44 | 39.24884 | 9.06007 | 15 ft | 18 kts | 317° |
| 2026-05-04 06:44 | 39.24973 | 9.05904 | 15 ft | 17 kts | 318° |
| 2026-05-04 06:44 | 39.25055 | 9.05809 | 15 ft | 15 kts | 318° |
| 2026-05-04 06:45 | 39.25112 | 9.05774 | 15 ft | 7 kts | 10° |
| 2026-05-04 06:45 | 39.25143 | 9.05816 | 15 ft | 6 kts | 61° |
| 2026-05-04 06:45 | 39.25148 | 9.05884 | 16 ft | 9 kts | 113° |
| 2026-05-04 06:45 | 39.25157 | 9.05951 | 16 ft | 7 kts | 52° |
| 2026-05-04 06:46 | 39.25191 | 9.05983 | 15 ft | 5 kts | 3° |
| 2026-05-04 06:46 | 39.25220 | 9.05965 | 16 ft | 4 kts | 323° |
| 2026-05-04 06:46 | 39.25233 | 9.05951 | 15 ft | 1 kts | 321° |
| 2026-05-04 06:46 | 39.25234 | 9.05950 | 15 ft | 0 kts | 321° |
| 2026-05-04 06:48 | 39.25235 | 9.05949 | 15 ft | 0 kts | 321° |